Terminal Aerodrome Forecast
Issued by NWS

Home | Current Version | Previous Version | Text Only | Print | Product List | Glossary On
Versions: 1 2 3 4 5 6 7 8 9 10 11 12 13 14 15 16 17 18 19 20 21 22 23 24 25 26 27 28 29 30 31 32 33 34 35 36 37 38 39 40 41 42 43 44 45 46 47 48 49 50
000
FTUS44 KHGX 281144 RRA
TAFUTS
TAF
KUTS 281144Z 2812/2912 VRB04KT 6SM RA BR BKN007 BKN050 OVC080
     FM282200 34005KT P6SM OVC015
     FM290200 00000KT 6SM BR OVC015
     FM290900 01004KT 5SM BR OVC007=

USA.gov is the U.S. government's official web portal to all federal, state and local government web resources and services.